Time;durP1;ratioP1;P1;durP2;ratioP2;P2;SDS_P1;SDS_P2;PMS_P1;PMS_P2;Temp;Humidity;BMP_temperature;BMP_pressure;BME280_temperature;BME280_humidity;BME280_pressure;Samples;Min_cycle;Max_cycle;Signal;HPM_P1;HPM_P2
2023/03/21 00:00:30;;;;;;;24.87;16.03;;;;;;;10.46;68.59;96976.69;4910773;29;20198;-70
2023/03/21 00:02:57;;;;;;;24.67;13.73;;;;;;;10.52;68.79;96966.91;4893853;29;20293;-76
2023/03/21 00:05:24;;;;;;;26.77;15.73;;;;;;;10.57;68.63;96966.69;4910636;29;20202;-72
2023/03/21 00:07:52;;;;;;;23.63;14.83;;;;;;;10.47;67.74;96952.47;4911001;29;20299;-74
2023/03/21 00:10:19;;;;;;;23.93;15.00;;;;;;;10.34;68.11;96947.06;4911241;29;20215;-78
2023/03/21 00:13:05;;;;;;;24.90;14.30;;;;;;;10.45;68.29;96936.19;4910391;29;20223;-77
2023/03/21 00:15:32;;;;;;;22.57;14.20;;;;;;;10.46;68.08;96949.06;4910727;29;20243;-76
2023/03/21 00:18:14;;;;;;;23.63;16.13;;;;;;;10.28;68.24;96947.31;4910071;29;20235;-77
2023/03/21 00:20:45;;;;;;;22.53;14.23;;;;;;;10.12;68.91;96942.94;4910700;29;20197;-75
2023/03/21 00:23:12;;;;;;;21.10;13.30;;;;;;;10.04;69.37;96932.88;4909853;29;20203;-76
2023/03/21 00:25:40;;;;;;;17.47;12.43;;;;;;;10.12;69.69;96938.56;4910408;29;20566;-75
2023/03/21 00:28:07;;;;;;;16.63;11.80;;;;;;;10.21;69.69;96939.91;4910086;29;20255;-71
2023/03/21 00:30:34;;;;;;;17.73;11.67;;;;;;;10.20;69.61;96935.66;4910362;29;20204;-75
2023/03/21 00:33:01;;;;;;;16.00;11.17;;;;;;;10.13;69.49;96926.47;4910425;29;20202;-71
2023/03/21 00:35:43;;;;;;;18.57;12.80;;;;;;;10.20;69.44;96927.91;4908972;29;20319;-70
2023/03/21 00:38:33;;;;;;;22.00;14.10;;;;;;;10.04;69.42;96929.44;4910931;29;20298;-73
2023/03/21 00:41:04;;;;;;;19.03;12.70;;;;;;;9.88;70.24;96929.31;4910130;29;20254;-74
2023/03/21 00:43:47;;;;;;;15.93;10.50;;;;;;;9.96;70.34;96928.94;4910261;29;20274;-75
2023/03/21 00:46:14;;;;;;;18.07;12.13;;;;;;;10.00;70.44;96922.72;4911096;29;20286;-72
2023/03/21 00:48:41;;;;;;;19.60;11.87;;;;;;;10.05;69.87;96918.19;4913225;29;20203;-71
2023/03/21 00:51:20;;;;;;;18.17;12.60;;;;;;;10.05;69.96;96907.84;4897509;29;20223;-73
2023/03/21 00:53:47;;;;;;;16.30;11.73;;;;;;;9.62;71.43;96909.75;4913438;29;20206;-72
2023/03/21 00:56:14;;;;;;;20.07;12.13;;;;;;;9.59;71.66;96917.66;4913491;29;20238;-70
2023/03/21 00:58:41;;;;;;;18.60;12.87;;;;;;;9.62;71.41;96902.00;4913844;29;20289;-71
2023/03/21 01:01:08;;;;;;;19.53;13.37;;;;;;;9.65;71.42;96899.31;4913530;29;20202;-78
2023/03/21 01:03:46;;;;;;;16.20;11.73;;;;;;;9.59;71.91;96886.66;4913732;29;20685;-71
2023/03/21 01:06:18;;;;;;;17.93;12.80;;;;;;;9.57;72.21;96895.38;4913304;29;20282;-73
2023/03/21 01:08:47;;;;;;;18.97;12.47;;;;;;;9.53;71.89;96891.25;4913706;29;20317;-72
2023/03/21 01:11:28;;;;;;;16.87;12.93;;;;;;;9.66;71.93;96893.25;4913357;29;20575;-74
2023/03/21 01:13:55;;;;;;;16.90;11.77;;;;;;;9.61;71.75;96874.50;4913102;29;20323;-73
2023/03/21 01:16:41;;;;;;;16.07;10.77;;;;;;;9.55;71.71;96873.91;4913388;29;20325;-70
2023/03/21 01:19:11;;;;;;;17.80;11.53;;;;;;;9.46;72.73;96879.50;4913618;29;20285;-72
2023/03/21 01:21:51;;;;;;;17.93;11.50;;;;;;;9.69;72.19;96877.56;4916525;29;20646;-70
2023/03/21 01:24:17;;;;;;;13.73;10.00;;;;;;;9.90;71.07;96874.91;4913647;29;20747;-71
2023/03/21 01:26:45;;;;;;;14.20;10.17;;;;;;;9.87;70.81;96873.31;4912984;29;20254;-69
2023/03/21 01:29:12;;;;;;;15.03;10.83;;;;;;;9.95;70.50;96875.56;4896280;29;20206;-72
2023/03/21 01:31:39;;;;;;;17.40;10.40;;;;;;;9.91;70.28;96861.09;4896667;29;20205;-70
2023/03/21 01:34:06;;;;;;;12.57;9.10;;;;;;;10.00;70.12;96851.16;4913104;29;20278;-74
2023/03/21 01:36:33;;;;;;;17.10;10.93;;;;;;;9.80;70.64;96849.50;4895506;29;20261;-71
2023/03/21 01:39:05;;;;;;;17.17;10.60;;;;;;;9.13;73.60;96839.63;4896276;29;20209;-71
2023/03/21 01:41:39;;;;;;;14.67;10.97;;;;;;;9.25;73.44;96845.13;4895680;29;20186;-74
2023/03/21 01:44:25;;;;;;;17.40;11.67;;;;;;;9.32;73.44;96838.75;4895750;29;20202;-73
2023/03/21 01:46:53;;;;;;;13.57;10.27;;;;;;;9.35;72.96;96841.22;4895786;29;20203;-72
2023/03/21 01:49:44;;;;;;;14.00;9.67;;;;;;;9.37;72.96;96844.56;4912576;29;20225;-74
2023/03/21 01:52:37;;;;;;;15.50;10.63;;;;;;;9.48;72.34;96832.00;4911530;29;20193;-71
2023/03/21 01:55:18;;;;;;;15.67;10.20;;;;;;;9.47;72.76;96830.34;4895480;29;20589;-72
2023/03/21 01:57:57;;;;;;;17.03;10.73;;;;;;;9.49;72.53;96833.69;4894326;29;20226;-71
2023/03/21 02:01:09;;;;;;;17.87;11.00;;;;;;;9.54;72.29;96841.25;4835400;29;20201;-78
2023/03/21 02:03:49;;;;;;;16.20;11.43;;;;;;;9.64;71.80;96834.75;4901617;29;20265;-74
2023/03/21 02:06:48;;;;;;;20.10;13.53;;;;;;;9.78;71.33;96830.63;4911989;29;20254;-72
2023/03/21 02:09:39;;;;;;;17.60;12.60;;;;;;;9.86;71.18;96832.84;4894728;29;20195;-73
2023/03/21 02:12:11;;;;;;;23.10;17.37;;;;;;;9.83;70.93;96826.06;4895055;29;20686;-71
2023/03/21 02:14:39;;;;;;;19.80;13.90;;;;;;;9.70;71.66;96826.72;4894901;29;20793;-72
2023/03/21 02:17:42;;;;;;;18.97;13.07;;;;;;;9.52;72.58;96830.94;4885077;29;20329;-74
2023/03/21 02:20:31;;;;;;;21.67;12.70;;;;;;;9.52;72.42;96828.34;4895346;29;20490;-77
2023/03/21 02:23:10;;;;;;;23.50;15.80;;;;;;;9.48;73.39;96829.41;4910937;29;20221;-76
2023/03/21 02:26:20;;;;;;;25.20;16.10;;;;;;;9.42;73.48;96828.84;4895250;29;20700;-74
2023/03/21 02:29:08;;;;;;;21.70;14.97;;;;;;;9.54;73.21;96833.47;4911857;29;20687;-71
2023/03/21 02:31:45;;;;;;;27.00;15.50;;;;;;;9.63;72.71;96818.38;4895010;29;20679;-76
2023/03/21 02:34:31;;;;;;;26.13;15.37;;;;;;;9.88;72.02;96825.84;4895309;29;20807;-73
2023/03/21 02:37:22;;;;;;;24.63;14.23;;;;;;;10.01;71.72;96826.97;4894658;29;20234;-76
2023/03/21 02:40:13;;;;;;;18.57;13.43;;;;;;;10.12;71.45;96835.06;4894691;29;20698;-72
2023/03/21 02:43:11;;;;;;;19.93;14.07;;;;;;;10.22;70.64;96827.75;4895049;29;20233;-72
2023/03/21 02:46:00;;;;;;;19.97;13.10;;;;;;;10.30;70.48;96823.03;4910320;29;20255;-73
2023/03/21 02:48:35;;;;;;;18.50;12.70;;;;;;;10.26;70.05;96831.84;4911760;29;20202;-73
2023/03/21 02:51:20;;;;;;;19.83;12.37;;;;;;;10.08;70.54;96817.16;4894585;29;20223;-75
2023/03/21 02:53:52;;;;;;;18.77;11.07;;;;;;;10.09;70.21;96824.00;4878880;29;20324;-74
2023/03/21 02:56:41;;;;;;;17.53;10.97;;;;;;;10.02;70.53;96827.78;4894773;29;20225;-70
2023/03/21 02:59:09;;;;;;;14.90;10.17;;;;;;;10.14;70.54;96829.84;4911318;29;20187;-73
2023/03/21 03:01:36;;;;;;;17.00;10.77;;;;;;;10.02;70.20;96815.69;4894503;29;20724;-76
2023/03/21 03:04:03;;;;;;;20.43;13.50;;;;;;;10.02;70.98;96828.63;4910117;29;20207;-75
2023/03/21 03:07:02;;;;;;;17.47;11.77;;;;;;;10.03;71.13;96826.88;4911262;29;20198;-72
2023/03/21 03:09:57;;;;;;;14.57;11.07;;;;;;;9.96;70.51;96820.31;4857452;29;20637;-78
2023/03/21 03:13:03;;;;;;;17.80;12.60;;;;;;;9.64;72.23;96830.38;4856874;29;20210;-76
2023/03/21 03:16:04;;;;;;;17.43;12.13;;;;;;;9.40;73.24;96831.50;4873381;29;20281;-77
2023/03/21 03:18:54;;;;;;;18.27;12.67;;;;;;;9.47;73.36;96827.75;4873908;29;20665;-75
2023/03/21 03:21:46;;;;;;;23.27;14.40;;;;;;;9.50;73.33;96821.59;4873502;29;20208;-71
2023/03/21 03:24:23;;;;;;;21.43;13.50;;;;;;;9.33;73.51;96804.28;4856617;29;20700;-77
2023/03/21 03:26:55;;;;;;;21.73;14.13;;;;;;;9.41;73.94;96820.28;4874498;29;20268;-71
2023/03/21 03:29:28;;;;;;;23.40;13.77;;;;;;;9.53;73.63;96819.72;4856776;29;20231;-70
2023/03/21 03:32:00;;;;;;;21.77;14.10;;;;;;;9.47;74.08;96821.72;4856868;29;20211;-75
2023/03/21 03:34:38;;;;;;;20.27;14.07;;;;;;;9.43;74.27;96822.78;4856634;29;20740;-75
2023/03/21 03:37:13;;;;;;;19.47;13.67;;;;;;;9.29;74.80;96826.00;4872958;29;20287;-70
2023/03/21 03:39:46;;;;;;;24.93;16.07;;;;;;;9.29;74.92;96826.00;4856812;29;20204;-74
2023/03/21 03:42:23;;;;;;;21.27;15.00;;;;;;;8.83;76.01;96770.31;4856370;29;20192;-71
2023/03/21 03:45:06;;;;;;;21.87;14.53;;;;;;;9.09;76.33;96810.50;4856449;29;20196;-71
2023/03/21 03:47:47;;;;;;;22.43;15.27;;;;;;;9.13;76.22;96821.56;4873028;29;20272;-78
2023/03/21 03:50:51;;;;;;;29.70;15.20;;;;;;;9.34;75.25;96808.50;4856310;29;20747;-73
2023/03/21 03:53:41;;;;;;;21.90;14.57;;;;;;;9.49;74.53;96802.66;4856383;29;20190;-73
2023/03/21 03:56:12;;;;;;;23.20;14.80;;;;;;;9.69;74.06;96801.75;4855998;29;20246;-72
2023/03/21 03:58:41;;;;;;;20.53;13.77;;;;;;;9.87;73.34;96800.06;4856331;29;20699;-70
2023/03/21 04:01:14;;;;;;;21.90;14.67;;;;;;;9.58;73.68;96775.56;4856788;29;20195;-72
2023/03/21 04:03:47;;;;;;;22.43;14.00;;;;;;;9.68;73.63;96803.53;4856258;29;20215;-71
2023/03/21 04:06:21;;;;;;;22.53;14.50;;;;;;;9.78;73.29;96798.75;4873149;29;20251;-72
2023/03/21 04:08:49;;;;;;;20.10;13.63;;;;;;;9.95;72.93;96803.97;4856345;29;20204;-72
2023/03/21 04:11:17;;;;;;;22.80;15.30;;;;;;;10.06;72.46;96800.84;4856044;29;20259;-73
2023/03/21 04:13:49;;;;;;;21.33;14.67;;;;;;;9.89;72.10;96775.81;4856213;29;20786;-78
2023/03/21 04:16:22;;;;;;;21.70;15.07;;;;;;;10.06;72.56;96795.69;4866148;29;20606;-71
2023/03/21 04:18:51;;;;;;;23.70;15.30;;;;;;;10.12;72.46;96788.50;4884458;29;20218;-74
2023/03/21 04:21:18;;;;;;;25.40;15.77;;;;;;;10.14;72.16;96791.84;4875753;29;20231;-82
2023/03/21 04:23:45;;;;;;;30.57;16.23;;;;;;;10.00;72.95;96775.28;4881303;29;20207;-76
2023/03/21 04:26:12;;;;;;;23.50;15.40;;;;;;;9.67;73.39;96760.47;4882723;29;20575;-77
2023/03/21 04:28:50;;;;;;;23.70;15.77;;;;;;;9.53;73.97;96777.50;4896982;29;20206;-76
2023/03/21 04:31:25;;;;;;;22.10;15.17;;;;;;;9.70;73.46;96765.50;4914337;29;20606;-75
2023/03/21 04:34:08;;;;;;;23.43;14.83;;;;;;;9.60;73.41;96743.53;4896826;29;20686;-74
2023/03/21 04:36:37;;;;;;;22.93;16.37;;;;;;;10.04;73.04;96780.25;4871356;29;20223;-75
2023/03/21 04:39:11;;;;;;;26.50;15.53;;;;;;;10.17;72.83;96789.13;4875187;29;20196;-77
2023/03/21 04:41:40;;;;;;;25.23;14.97;;;;;;;10.06;72.59;96787.91;4896907;29;20251;-79
2023/03/21 04:44:09;;;;;;;18.93;11.47;;;;;;;10.07;71.39;96789.63;4882387;29;20204;-78
2023/03/21 04:46:36;;;;;;;19.13;11.10;;;;;;;10.00;71.34;96788.22;4876810;29;20210;-76
2023/03/21 04:49:05;;;;;;;16.20;10.13;;;;;;;9.90;71.67;96767.13;4876810;29;20208;-74
2023/03/21 04:51:33;;;;;;;16.83;10.00;;;;;;;10.19;70.86;96791.66;4911700;29;20260;-70
2023/03/21 04:54:01;;;;;;;14.07;9.60;;;;;;;10.10;70.58;96794.66;4896770;29;20624;-70
2023/03/21 04:56:32;;;;;;;18.80;10.90;;;;;;;9.59;72.82;96790.16;4896642;29;20246;-72
2023/03/21 04:59:04;;;;;;;16.63;12.20;;;;;;;9.55;72.95;96779.13;4896400;29;20694;-73
2023/03/21 05:01:32;;;;;;;21.40;13.67;;;;;;;9.68;73.22;96792.34;4896753;29;20193;-69
2023/03/21 05:04:01;;;;;;;23.87;14.23;;;;;;;9.58;73.48;96794.47;4896543;29;20575;-73
2023/03/21 05:06:30;;;;;;;26.40;14.60;;;;;;;9.52;74.22;96807.69;4897005;29;20587;-73
2023/03/21 05:09:00;;;;;;;23.87;14.63;;;;;;;9.62;73.71;96798.59;4883339;29;20315;-76
2023/03/21 05:11:29;;;;;;;22.10;15.23;;;;;;;9.25;74.19;96762.44;4868105;29;20295;-76
2023/03/21 05:13:58;;;;;;;29.13;16.23;;;;;;;9.73;73.90;96817.06;4876551;29;20233;-81
2023/03/21 05:16:29;;;;;;;28.30;16.77;;;;;;;10.00;73.01;96829.59;4874884;29;20257;-80
2023/03/21 05:19:02;;;;;;;28.87;17.63;;;;;;;10.08;72.13;96827.50;4878620;29;20738;-75
2023/03/21 05:21:40;;;;;;;27.30;17.83;;;;;;;10.24;71.58;96838.84;4885872;29;20195;-73
2023/03/21 05:24:18;;;;;;;23.37;15.47;;;;;;;9.96;72.03;96839.25;4881752;29;20598;-74
2023/03/21 05:26:54;;;;;;;28.13;16.83;;;;;;;9.81;72.88;96845.97;4874786;29;20204;-71
2023/03/21 05:29:25;;;;;;;24.13;15.60;;;;;;;9.48;74.04;96862.19;4875381;29;20216;-80
2023/03/21 05:32:00;;;;;;;21.97;14.43;;;;;;;9.64;74.18;96865.78;4874487;29;20208;-74
2023/03/21 05:34:28;;;;;;;21.27;14.23;;;;;;;9.61;73.74;96861.56;4872760;29;20214;-75
2023/03/21 05:36:55;;;;;;;20.87;13.00;;;;;;;9.59;73.82;96872.88;4874281;29;20229;-74
2023/03/21 05:39:25;;;;;;;22.20;13.83;;;;;;;9.50;74.23;96870.72;4873532;29;20638;-76
2023/03/21 05:42:00;;;;;;;18.83;12.37;;;;;;;9.49;74.27;96872.47;4873089;29;20635;-72
2023/03/21 05:44:28;;;;;;;16.97;12.47;;;;;;;9.49;74.42;96864.69;4875131;29;20196;-75
2023/03/21 05:46:55;;;;;;;20.47;13.40;;;;;;;9.52;74.24;96872.31;4873345;29;20199;-80
2023/03/21 05:49:30;;;;;;;34.20;25.10;;;;;;;9.64;74.35;96884.69;4873939;29;20208;-77
2023/03/21 05:52:00;;;;;;;23.13;15.90;;;;;;;9.63;74.20;96877.84;4873294;29;20196;-70
2023/03/21 05:54:27;;;;;;;22.23;15.27;;;;;;;9.61;74.38;96884.00;4873525;29;20637;-76
2023/03/21 05:56:54;;;;;;;26.33;14.97;;;;;;;9.60;75.01;96888.31;4874882;29;20331;-71
2023/03/21 05:59:40;;;;;;;24.10;14.57;;;;;;;9.53;75.14;96863.66;4872994;29;20240;-74
2023/03/21 06:02:07;;;;;;;20.27;13.50;;;;;;;9.84;74.74;96892.41;4873530;29;20713;-75
2023/03/21 06:04:34;;;;;;;20.37;14.00;;;;;;;9.96;74.24;96887.56;4873125;29;20202;-76
2023/03/21 06:07:02;;;;;;;20.07;13.20;;;;;;;9.86;74.64;96884.56;4875363;29;20646;-76
2023/03/21 06:09:29;;;;;;;18.63;14.20;;;;;;;9.67;75.19;96869.03;4875777;29;20215;-73
2023/03/21 06:11:59;;;;;;;22.67;14.23;;;;;;;9.98;74.46;96872.81;4873519;29;20234;-77
2023/03/21 06:14:27;;;;;;;24.93;15.60;;;;;;;10.13;74.09;96866.97;4889111;29;20355;-75
2023/03/21 06:17:12;;;;;;;18.13;12.27;;;;;;;10.28;72.70;96850.75;4860916;29;20231;-71
2023/03/21 06:19:46;;;;;;;17.63;12.20;;;;;;;10.64;71.56;96856.72;4876398;29;20199;-75
2023/03/21 06:22:19;;;;;;;16.87;11.63;;;;;;;10.82;70.15;96842.03;4875965;29;20219;-78
2023/03/21 06:24:47;;;;;;;21.97;13.87;;;;;;;11.17;69.63;96860.06;4876398;29;20195;-74
2023/03/21 06:27:16;;;;;;;20.00;13.30;;;;;;;11.59;68.80;96835.41;4892636;29;20229;-77
2023/03/21 06:29:52;;;;;;;19.43;13.33;;;;;;;12.10;67.13;96853.41;4875346;29;20639;-74
2023/03/21 06:32:20;;;;;;;21.90;12.13;;;;;;;12.38;65.57;96850.13;4876186;29;20311;-80
2023/03/21 06:34:53;;;;;;;19.60;13.37;;;;;;;12.83;65.15;96860.50;4875223;29;20200;-76
2023/03/21 06:37:20;;;;;;;26.17;13.30;;;;;;;13.17;63.91;96856.84;4860002;29;20786;-73
2023/03/21 06:39:50;;;;;;;25.93;13.10;;;;;;;13.38;63.32;96851.19;4892000;29;20205;-76
2023/03/21 06:42:19;;;;;;;24.20;13.13;;;;;;;13.62;62.71;96861.88;4874741;29;20675;-77
2023/03/21 06:44:47;;;;;;;24.07;14.13;;;;;;;13.81;61.73;96858.06;4875142;29;20209;-76
2023/03/21 06:47:15;;;;;;;26.53;13.13;;;;;;;13.66;61.54;96858.16;4875086;29;20203;-74
2023/03/21 06:49:44;;;;;;;14.77;10.73;;;;;;;13.58;61.35;96848.19;4875274;29;20210;-79
2023/03/21 06:52:12;;;;;;;23.70;13.40;;;;;;;13.70;61.54;96849.25;4874744;29;20210;-77
2023/03/21 06:54:39;;;;;;;27.80;14.80;;;;;;;13.64;61.09;96844.41;4874734;29;20660;-79
2023/03/21 06:57:12;;;;;;;28.63;15.47;;;;;;;13.69;60.73;96847.56;4889756;29;20251;-78
2023/03/21 06:59:40;;;;;;;31.87;15.37;;;;;;;13.78;60.30;96862.63;4844194;29;20204;-75
2023/03/21 07:02:12;;;;;;;41.13;17.13;;;;;;;13.82;60.44;96864.09;4890663;29;20682;-78
2023/03/21 07:04:45;;;;;;;26.47;14.83;;;;;;;13.77;60.38;96846.16;4874752;29;20205;-80
2023/03/21 07:07:18;;;;;;;22.30;13.07;;;;;;;13.95;59.69;96870.22;4890853;29;20765;-77
2023/03/21 07:09:45;;;;;;;20.80;12.00;;;;;;;14.05;59.92;96863.53;4874565;29;20691;-81
2023/03/21 07:12:12;;;;;;;22.70;14.30;;;;;;;13.64;59.66;96808.00;4874811;29;20259;-78
2023/03/21 07:14:57;;;;;;;21.53;14.87;;;;;;;14.17;59.93;96869.72;4874616;29;20237;-78
2023/03/21 07:17:25;;;;;;;28.63;15.37;;;;;;;14.39;59.87;96873.53;4858516;29;20287;-73
2023/03/21 07:19:53;;;;;;;27.87;14.37;;;;;;;14.42;60.24;96869.88;4891984;29;20288;-79
2023/03/21 07:22:20;;;;;;;27.33;14.37;;;;;;;14.51;60.11;96864.06;4891004;29;20208;-78
2023/03/21 07:24:47;;;;;;;25.00;13.70;;;;;;;14.50;59.61;96862.41;4890444;29;20261;-75
2023/03/21 07:27:29;;;;;;;25.60;15.07;;;;;;;14.33;60.16;96860.88;4891147;29;20207;-78
2023/03/21 07:29:56;;;;;;;27.70;13.83;;;;;;;14.50;59.46;96865.88;4874353;29;20203;-78
2023/03/21 07:32:23;;;;;;;23.47;13.50;;;;;;;14.25;59.90;96860.50;4891148;29;20279;-71
2023/03/21 07:34:50;;;;;;;25.43;14.27;;;;;;;14.41;59.48;96857.78;4874194;29;20630;-76
2023/03/21 07:37:17;;;;;;;24.50;14.17;;;;;;;14.43;59.47;96861.97;4859410;29;20263;-79
2023/03/21 07:39:44;;;;;;;22.47;12.83;;;;;;;14.66;59.08;96850.06;4873875;29;20609;-77
2023/03/21 07:42:11;;;;;;;22.13;13.33;;;;;;;14.88;58.43;96852.13;4846452;29;20199;-75
2023/03/21 07:44:39;;;;;;;23.93;13.53;;;;;;;14.68;58.30;96825.56;4889550;29;20291;-79
2023/03/21 07:47:06;;;;;;;20.87;12.97;;;;;;;15.16;57.32;96851.97;4877303;29;20208;-77
2023/03/21 07:49:33;;;;;;;21.03;12.50;;;;;;;14.96;57.17;96840.22;4890585;29;20213;-75
2023/03/21 07:52:00;;;;;;;22.07;13.73;;;;;;;14.73;57.52;96803.59;4873956;29;20214;-77
2023/03/21 07:54:30;;;;;;;19.87;14.23;;;;;;;14.92;57.09;96817.09;4905326;29;20199;-79
2023/03/21 07:56:58;;;;;;;14.07;9.50;;;;;;;15.04;57.58;96851.00;4873244;29;20662;-79
2023/03/21 07:59:25;;;;;;;19.33;9.83;;;;;;;15.05;56.67;96850.06;4891263;29;20195;-79
2023/03/21 08:01:52;;;;;;;17.10;10.70;;;;;;;15.06;57.07;96846.53;4891388;29;20208;-78
2023/03/21 08:04:19;;;;;;;18.27;11.97;;;;;;;15.09;56.86;96842.84;4874581;29;20237;-76
2023/03/21 08:06:46;;;;;;;19.23;10.20;;;;;;;15.25;57.06;96848.75;4891458;29;20192;-77
2023/03/21 08:09:13;;;;;;;16.60;10.43;;;;;;;15.07;57.76;96840.34;4873687;29;20191;-76
2023/03/21 08:11:40;;;;;;;14.93;9.40;;;;;;;15.49;56.08;96836.66;4891143;29;20710;-76
2023/03/21 08:14:07;;;;;;;12.43;9.40;;;;;;;15.47;55.74;96809.84;4890742;29;20596;-76
2023/03/21 08:16:34;;;;;;;17.73;9.97;;;;;;;15.63;55.41;96815.66;4891662;29;20670;-75
2023/03/21 08:19:01;;;;;;;16.07;10.53;;;;;;;15.91;54.96;96831.06;4891110;29;20334;-77
2023/03/21 08:21:29;;;;;;;14.17;9.67;;;;;;;15.69;54.56;96820.47;4891458;29;20192;-76
2023/03/21 08:23:56;;;;;;;18.63;10.73;;;;;;;15.83;54.73;96822.09;4890656;29;20290;-76
2023/03/21 08:26:25;;;;;;;16.43;10.30;;;;;;;15.90;54.12;96813.75;4890852;29;20219;-75
2023/03/21 08:28:52;;;;;;;20.60;11.13;;;;;;;15.86;54.69;96819.28;4874946;29;20251;-75
2023/03/21 08:31:20;;;;;;;14.23;9.43;;;;;;;15.94;54.69;96820.41;4890559;29;20211;-76
2023/03/21 08:33:52;;;;;;;17.27;9.97;;;;;;;16.03;54.58;96834.63;4891391;29;20239;-77
2023/03/21 08:36:23;;;;;;;14.80;9.33;;;;;;;15.88;54.89;96814.78;4875244;29;20266;-74
2023/03/21 08:38:55;;;;;;;21.13;10.03;;;;;;;15.98;54.97;96824.47;4890930;29;20231;-75
2023/03/21 08:41:24;;;;;;;14.67;9.60;;;;;;;15.81;55.30;96817.00;4873847;29;20616;-77
2023/03/21 08:43:51;;;;;;;17.10;9.57;;;;;;;15.81;55.61;96811.75;4890305;29;20302;-78
2023/03/21 08:46:18;;;;;;;13.43;8.77;;;;;;;15.73;55.77;96832.34;4891132;29;20689;-79
2023/03/21 08:48:45;;;;;;;13.60;8.43;;;;;;;15.82;55.10;96813.44;4873888;29;20297;-77
2023/03/21 08:51:12;;;;;;;13.70;8.47;;;;;;;15.99;55.30;96825.31;4891305;29;20191;-76
2023/03/21 08:53:40;;;;;;;16.20;9.23;;;;;;;16.22;54.60;96822.72;4873906;29;20211;-78
2023/03/21 08:56:07;;;;;;;9.90;7.50;;;;;;;15.82;53.86;96799.56;4873758;29;20189;-78
2023/03/21 08:58:35;;;;;;;12.30;8.03;;;;;;;16.05;52.71;96820.47;4890674;29;20229;-78
2023/03/21 09:01:03;;;;;;;11.33;6.53;;;;;;;15.99;51.91;96815.69;4890529;29;20207;-78
2023/03/21 09:03:30;;;;;;;10.53;7.33;;;;;;;16.10;52.45;96805.31;4874383;29;20701;-77
2023/03/21 09:05:58;;;;;;;13.47;8.57;;;;;;;16.23;52.73;96800.91;4890171;29;20244;-76
2023/03/21 09:08:25;;;;;;;11.27;8.40;;;;;;;16.17;54.07;96817.00;4892828;29;20204;-78
2023/03/21 09:10:53;;;;;;;11.33;8.10;;;;;;;16.48;52.77;96786.88;4892271;29;20202;-76
2023/03/21 09:13:21;;;;;;;14.30;9.03;;;;;;;16.52;52.75;96775.28;4893371;29;20239;-78
2023/03/21 09:15:48;;;;;;;14.40;9.07;;;;;;;16.71;52.09;96800.91;4878869;29;20232;-76
2023/03/21 09:18:16;;;;;;;10.87;7.93;;;;;;;16.80;51.71;96802.81;4893096;29;20234;-80
2023/03/21 09:20:45;;;;;;;11.73;7.37;;;;;;;16.86;50.58;96790.13;4892298;29;20648;-77
2023/03/21 09:23:13;;;;;;;10.30;8.30;;;;;;;16.97;49.64;96803.25;4893264;29;20196;-78
2023/03/21 09:25:41;;;;;;;16.13;7.40;;;;;;;17.21;49.99;96795.31;4894015;29;20212;-76
2023/03/21 09:28:08;;;;;;;12.80;7.87;;;;;;;17.17;50.15;96791.28;4893642;29;20308;-78
2023/03/21 09:30:36;;;;;;;10.10;7.80;;;;;;;17.30;49.92;96792.03;4893718;29;20205;-80
2023/03/21 09:33:08;;;;;;;10.07;6.90;;;;;;;17.11;48.84;96783.88;4892359;29;20207;-76
2023/03/21 09:35:36;;;;;;;9.03;5.23;;;;;;;17.04;47.43;96787.94;4892232;29;20304;-79
2023/03/21 09:38:04;;;;;;;12.20;7.87;;;;;;;16.92;50.18;96784.44;4893497;29;20314;-79
2023/03/21 09:40:53;;;;;;;11.60;7.13;;;;;;;17.25;49.15;96780.25;4893044;29;20198;-77
2023/03/21 09:43:42;;;;;;;10.00;6.97;;;;;;;17.12;49.30;96775.09;4893436;29;20876;-76
2023/03/21 09:46:18;;;;;;;8.57;6.17;;;;;;;17.18;48.92;96769.41;4891518;29;20275;-76
2023/03/21 09:49:01;;;;;;;8.80;6.70;;;;;;;17.47;47.24;96780.25;4892932;29;20579;-78
2023/03/21 09:51:33;;;;;;;9.67;6.33;;;;;;;17.72;46.47;96780.88;4893875;29;20196;-76
2023/03/21 09:54:24;;;;;;;7.87;6.07;;;;;;;17.83;44.73;96787.88;4891593;29;20668;-75
2023/03/21 09:56:56;;;;;;;8.40;6.50;;;;;;;17.51;45.92;96776.47;4876272;29;20253;-77
2023/03/21 09:59:38;;;;;;;8.63;6.30;;;;;;;17.42;46.75;96772.75;4893231;29;20236;-76
2023/03/21 10:02:15;;;;;;;10.43;6.83;;;;;;;17.60;46.71;96775.75;4893010;29;20233;-80
2023/03/21 10:04:45;;;;;;;12.00;6.77;;;;;;;17.60;47.28;96763.50;4893313;29;20283;-79
2023/03/21 10:07:18;;;;;;;12.20;6.50;;;;;;;17.69;46.74;96773.25;4891665;29;20689;-78
2023/03/21 10:09:47;;;;;;;10.50;6.70;;;;;;;17.72;46.49;96775.63;4891624;29;20272;-77
2023/03/21 10:12:21;;;;;;;12.53;7.23;;;;;;;17.32;47.02;96739.53;4894283;29;20194;-81
2023/03/21 10:14:56;;;;;;;21.67;10.87;;;;;;;17.48;47.15;96764.41;4876917;29;20257;-79
2023/03/21 10:17:42;;;;;;;8.53;7.23;;;;;;;17.47;47.71;96775.84;4896955;29;20201;-80
2023/03/21 10:20:09;;;;;;;8.90;6.40;;;;;;;17.67;47.83;96776.94;4878266;29;20321;-79
2023/03/21 10:22:41;;;;;;;9.20;7.47;;;;;;;17.66;47.70;96777.91;4895385;29;20226;-76
2023/03/21 10:25:14;;;;;;;13.07;9.97;;;;;;;17.63;48.54;96780.75;4891445;29;20228;-77
2023/03/21 10:27:42;;;;;;;8.63;6.10;;;;;;;17.37;48.92;96776.69;4892272;29;20229;-75
2023/03/21 10:30:38;;;;;;;12.17;7.00;;;;;;;17.57;48.51;96781.25;4876146;29;20341;-76
2023/03/21 10:33:10;;;;;;;12.80;6.80;;;;;;;17.92;48.41;96776.69;4879300;29;20212;-75
2023/03/21 10:35:40;;;;;;;14.93;7.13;;;;;;;17.78;48.45;96764.66;4893494;29;20207;-76
2023/03/21 10:38:15;;;;;;;10.73;6.80;;;;;;;18.05;48.26;96763.47;4889595;29;20726;-77
2023/03/21 10:40:43;;;;;;;11.83;6.90;;;;;;;18.27;47.98;96768.63;4891747;29;20208;-79
2023/03/21 10:43:30;;;;;;;13.80;7.07;;;;;;;18.29;47.87;96774.59;4875776;29;20634;-76
2023/03/21 10:45:57;;;;;;;8.87;7.17;;;;;;;18.10;48.89;96775.22;4890974;29;20198;-77
2023/03/21 10:48:24;;;;;;;9.63;7.03;;;;;;;17.89;49.24;96751.56;4891647;29;20365;-78
2023/03/21 10:50:54;;;;;;;10.77;7.00;;;;;;;17.91;48.99;96745.38;4892057;29;20202;-78
2023/03/21 10:53:28;;;;;;;12.70;7.23;;;;;;;17.73;48.87;96734.56;4892110;29;20531;-79
2023/03/21 10:55:58;;;;;;;9.83;6.23;;;;;;;17.65;49.14;96729.94;4892501;29;20204;-80
2023/03/21 10:58:33;;;;;;;13.47;6.40;;;;;;;17.29;50.33;96718.84;4891404;29;20225;-78
2023/03/21 11:01:03;;;;;;;10.40;6.40;;;;;;;17.18;50.36;96700.53;4891842;29;20197;-76
2023/03/21 11:03:35;;;;;;;11.73;5.97;;;;;;;17.34;50.16;96722.78;4891462;29;20198;-80
2023/03/21 11:06:21;;;;;;;11.13;7.23;;;;;;;17.49;50.08;96716.38;4891333;29;20201;-78
2023/03/21 11:08:52;;;;;;;9.80;6.83;;;;;;;17.67;48.63;96691.38;4892095;29;20225;-75
2023/03/21 11:11:26;;;;;;;15.67;6.93;;;;;;;17.95;47.87;96700.44;4891619;29;20198;-78
2023/03/21 11:14:00;;;;;;;12.10;6.73;;;;;;;17.94;47.98;96696.19;4891731;29;20712;-76
2023/03/21 11:16:34;;;;;;;9.73;5.73;;;;;;;17.94;45.81;96711.06;4875107;29;20231;-76
2023/03/21 11:19:11;;;;;;;10.93;6.17;;;;;;;18.04;47.45;96702.34;4909597;29;20221;-73
2023/03/21 11:21:38;;;;;;;9.23;6.30;;;;;;;18.34;46.98;96694.59;4910924;29;20316;-76
2023/03/21 11:24:10;;;;;;;11.23;6.47;;;;;;;18.30;45.86;96692.38;4893644;29;20620;-77
2023/03/21 11:26:42;;;;;;;10.87;6.10;;;;;;;18.39;45.01;96700.31;4911938;29;20201;-76
2023/03/21 11:29:29;;;;;;;9.73;6.53;;;;;;;18.77;45.08;96685.84;4911283;29;20229;-77
2023/03/21 11:32:00;;;;;;;13.30;6.00;;;;;;;19.21;43.81;96686.34;4904444;29;20198;-76
2023/03/21 11:34:37;;;;;;;10.13;5.90;;;;;;;19.41;43.21;96682.84;4891177;29;20202;-79
2023/03/21 11:37:05;;;;;;;10.80;5.80;;;;;;;19.44;42.89;96672.09;4890879;29;20729;-79
2023/03/21 11:39:38;;;;;;;8.03;5.60;;;;;;;19.63;40.67;96676.59;4891531;29;20234;-75
2023/03/21 11:42:39;;;;;;;8.50;5.83;;;;;;;19.61;39.59;96665.38;4890836;29;20187;-76
2023/03/21 11:45:13;;;;;;;12.07;6.27;;;;;;;19.52;39.56;96639.06;4891200;29;20230;-77
2023/03/21 11:47:40;;;;;;;10.53;5.40;;;;;;;19.49;38.74;96645.44;4891149;29;20211;-78
2023/03/21 11:50:19;;;;;;;15.23;5.67;;;;;;;19.43;37.43;96654.66;4890251;29;20274;-78
2023/03/21 11:53:15;;;;;;;7.60;4.70;;;;;;;19.54;36.12;96650.28;4891140;29;20198;-77